KONL/ONL METAR and TAF weather

Enter ICAO airport designator
Station Type Date Time Source
KONL METAR 2018/12/11 19:55 UTC NOAA

KONL 111955Z AUTO 29009KT 10SM SCT120 01/M05 A2986 RMK AO2 T00071046


Station Type Date Time Source
KONL Decoded METAR 2018/12/11 19:55 UTC NOAA

O'Neill / Baker Field, NE, United States (KONL) 42-28N 098-41W
Dec 11, 2018 - 02:55 PM EST / 2018.12.11 1955 UTC
Wind: from the WNW (290 degrees) at 10 MPH (9 KT):0
Visibility: 10 mile(s):0
Sky conditions: partly cloudy
Temperature: 33.3 F (0.7 C)
Windchill: 24 F (-4 C):1
Dew Point: 23.7 F (-4.6 C)
Relative Humidity: 67%
Pressure (altimeter): 29.86 in. Hg (1011 hPa)
ob: KONL 111955Z AUTO 29009KT 10SM SCT120 01/M05 A2986 RMK AO2 T00071046
cycle: 20

Station Type Date Time Source
KONL TAF UTC NOAA

Error!


Example: see airport list